Time;durP1;ratioP1;P1;durP2;ratioP2;P2;SDS_P1;SDS_P2;PMS_P1;PMS_P2;Temp;Humidity;BMP_temperature;BMP_pressure;BME280_temperature;BME280_humidity;BME280_pressure;Samples;Min_cycle;Max_cycle;Signal;HPM_P1;HPM_P2
2021/12/26 00:00:19;;;;;;;5.90;5.13;;;-1.70;99.90;;;;;;5054693;28;20778;-60
2021/12/26 00:02:48;;;;;;;7.33;4.93;;;-1.70;99.90;;;;;;5055428;28;20474;-61
2021/12/26 00:05:19;;;;;;;7.50;5.33;;;-1.70;99.90;;;;;;5056042;28;20494;-63
2021/12/26 00:07:47;;;;;;;7.50;5.67;;;-1.80;99.90;;;;;;5055012;28;20532;-63
2021/12/26 00:10:20;;;;;;;6.23;4.97;;;-1.70;99.90;;;;;;5051456;28;20468;-63
2021/12/26 00:12:52;;;;;;;7.60;5.70;;;-1.70;99.90;;;;;;5053842;28;20466;-63
2021/12/26 00:15:20;;;;;;;9.07;5.70;;;-1.70;99.90;;;;;;5051307;28;20465;-63
2021/12/26 00:17:47;;;;;;;7.20;5.37;;;-1.70;99.90;;;;;;5056220;28;20919;-62
2021/12/26 00:20:18;;;;;;;7.10;5.40;;;-1.70;99.90;;;;;;5055748;28;20455;-63
2021/12/26 00:22:47;;;;;;;5.90;5.30;;;-1.60;99.90;;;;;;5060104;28;20464;-63
2021/12/26 00:25:18;;;;;;;7.27;5.00;;;-1.60;99.90;;;;;;5058971;28;20466;-63
2021/12/26 00:27:45;;;;;;;6.67;5.30;;;-1.50;99.90;;;;;;5060262;28;20463;-63
2021/12/26 00:30:18;;;;;;;5.87;5.03;;;-1.60;99.90;;;;;;5059999;28;20465;-63
2021/12/26 00:32:46;;;;;;;5.80;5.20;;;-1.50;99.90;;;;;;5064663;28;20463;-63
2021/12/26 00:35:15;;;;;;;6.93;5.33;;;-1.50;99.90;;;;;;5080222;28;20499;-63
2021/12/26 00:37:42;;;;;;;5.97;5.00;;;-1.50;99.90;;;;;;5079542;28;20461;-63
2021/12/26 00:40:12;;;;;;;6.80;5.03;;;-1.50;99.90;;;;;;5079495;28;20467;-63
2021/12/26 00:42:39;;;;;;;6.17;5.07;;;-1.50;99.90;;;;;;5077140;28;20468;-64
2021/12/26 00:45:08;;;;;;;6.10;5.50;;;-1.40;99.90;;;;;;5059574;28;20961;-64
2021/12/26 00:47:39;;;;;;;9.50;6.00;;;-1.30;99.90;;;;;;5059633;28;20522;-63
2021/12/26 00:50:10;;;;;;;6.57;4.97;;;-1.40;99.90;;;;;;5059477;28;20825;-63
2021/12/26 00:52:39;;;;;;;6.77;5.20;;;-1.30;99.90;;;;;;5059532;28;20465;-63
2021/12/26 00:55:09;;;;;;;9.73;6.17;;;-1.20;99.90;;;;;;5074873;28;20512;-63
2021/12/26 00:57:36;;;;;;;6.67;5.53;;;-1.20;99.90;;;;;;5077925;28;20908;-63
2021/12/26 01:00:06;;;;;;;6.77;5.73;;;-1.10;99.90;;;;;;5059676;28;20834;-63
2021/12/26 01:02:36;;;;;;;6.87;6.00;;;-1.10;99.90;;;;;;5059448;28;20526;-63
2021/12/26 01:05:08;;;;;;;7.30;4.60;;;-1.10;99.90;;;;;;5059692;28;20519;-63
2021/12/26 01:07:46;;;;;;;6.70;5.47;;;-1.10;99.90;;;;;;5059002;28;20501;-63
2021/12/26 01:10:16;;;;;;;6.00;5.27;;;-1.10;99.90;;;;;;5078725;28;20892;-63
2021/12/26 01:12:43;;;;;;;8.20;6.00;;;-1.10;99.90;;;;;;5062262;28;20740;-63
2021/12/26 01:15:13;;;;;;;7.30;5.67;;;-1.00;99.90;;;;;;5068582;28;20469;-63
2021/12/26 01:17:44;;;;;;;6.73;5.20;;;-1.00;99.90;;;;;;5079206;28;20774;-63
2021/12/26 01:20:18;;;;;;;8.00;5.97;;;-1.00;99.90;;;;;;5078375;28;20491;-63
2021/12/26 01:22:48;;;;;;;7.63;5.53;;;-0.90;99.90;;;;;;5078596;28;20464;-63
2021/12/26 01:25:15;;;;;;;12.00;5.80;;;-0.90;99.90;;;;;;5071294;28;20539;-63
2021/12/26 01:27:45;;;;;;;6.20;5.57;;;-0.90;99.90;;;;;;5058957;28;20513;-62
2021/12/26 01:30:13;;;;;;;6.27;4.90;;;-0.80;99.90;;;;;;5058260;28;20459;-63
2021/12/26 01:32:40;;;;;;;8.20;6.20;;;-0.80;99.90;;;;;;5057786;28;20902;-63
2021/12/26 01:35:10;;;;;;;6.10;5.50;;;-0.60;99.90;;;;;;5059871;28;20522;-63
2021/12/26 01:37:42;;;;;;;6.30;5.20;;;-0.60;99.90;;;;;;5079402;28;20772;-63
2021/12/26 01:40:10;;;;;;;5.50;5.00;;;-0.60;99.90;;;;;;5070488;28;20941;-63
2021/12/26 01:42:37;;;;;;;6.70;5.40;;;-0.50;99.90;;;;;;5058463;28;20469;-63
2021/12/26 01:45:06;;;;;;;8.20;5.40;;;-0.50;99.90;;;;;;5058617;28;20468;-60
2021/12/26 01:47:34;;;;;;;6.60;5.77;;;-0.40;99.90;;;;;;5058725;28;20518;-62
2021/12/26 01:50:01;;;;;;;6.70;5.17;;;-0.40;99.90;;;;;;5060379;28;20434;-62
2021/12/26 01:52:31;;;;;;;5.23;4.73;;;-0.40;99.90;;;;;;5077913;28;20469;-63
2021/12/26 01:55:20;;;;;;;7.37;6.00;;;-0.30;99.90;;;;;;5078150;28;20526;-63
2021/12/26 01:57:47;;;;;;;6.97;5.00;;;-0.20;99.90;;;;;;5078685;28;20757;-63
2021/12/26 02:00:17;;;;;;;5.87;5.20;;;-0.10;99.90;;;;;;5077166;28;20787;-63
2021/12/26 02:02:45;;;;;;;7.83;5.70;;;0.10;99.90;;;;;;5058069;28;20474;-62
2021/12/26 02:05:12;;;;;;;7.60;4.93;;;0.10;99.90;;;;;;5058271;28;20465;-63
2021/12/26 02:07:39;;;;;;;6.37;5.27;;;0.10;99.90;;;;;;5057545;28;20498;-63
2021/12/26 02:10:11;;;;;;;6.10;5.50;;;0.20;99.90;;;;;;5057893;28;20898;-63
2021/12/26 02:12:38;;;;;;;6.67;5.43;;;0.20;99.90;;;;;;5057496;28;20469;-63
2021/12/26 02:15:06;;;;;;;6.47;5.30;;;0.20;99.90;;;;;;5058214;28;20523;-63
2021/12/26 02:17:33;;;;;;;8.00;5.50;;;0.20;99.90;;;;;;5058153;28;20898;-63
2021/12/26 02:20:23;;;;;;;6.70;5.60;;;0.20;99.90;;;;;;5058049;28;20490;-63
2021/12/26 02:22:52;;;;;;;7.00;5.20;;;0.30;99.90;;;;;;5071617;28;20468;-64
2021/12/26 02:25:31;;;;;;;5.67;5.17;;;0.30;99.90;;;;;;5062881;28;20778;-64
2021/12/26 02:27:59;;;;;;;7.33;5.97;;;0.30;99.90;;;;;;5037715;28;20481;-64
2021/12/26 02:30:26;;;;;;;6.20;5.10;;;0.30;99.90;;;;;;5037838;28;20462;-64
2021/12/26 02:32:59;;;;;;;7.03;5.67;;;0.30;99.90;;;;;;5059015;28;20518;-64
2021/12/26 02:35:28;;;;;;;6.90;5.53;;;0.30;99.90;;;;;;5077942;28;20476;-64
2021/12/26 02:37:55;;;;;;;6.60;5.80;;;0.30;99.90;;;;;;5077457;28;20464;-64
2021/12/26 02:40:22;;;;;;;6.97;5.80;;;0.30;99.90;;;;;;5077282;28;20565;-64
2021/12/26 02:42:50;;;;;;;8.63;6.53;;;0.30;99.90;;;;;;5070495;28;20467;-64
2021/12/26 02:45:17;;;;;;;6.70;5.80;;;0.40;99.90;;;;;;5057173;28;20466;-64
2021/12/26 02:47:47;;;;;;;5.40;4.73;;;0.40;99.90;;;;;;5057504;28;20467;-64
2021/12/26 02:50:17;;;;;;;8.90;6.77;;;0.40;99.90;;;;;;5056209;28;20508;-64
2021/12/26 02:52:46;;;;;;;7.47;5.60;;;0.40;99.90;;;;;;5058571;28;20470;-64
2021/12/26 02:55:15;;;;;;;7.10;5.70;;;0.40;99.90;;;;;;5077338;28;20464;-64
2021/12/26 02:57:46;;;;;;;6.90;5.77;;;0.50;99.90;;;;;;5076481;28;20990;-64
2021/12/26 03:00:22;;;;;;;8.17;6.30;;;0.50;99.90;;;;;;5077141;28;20546;-63
2021/12/26 03:02:52;;;;;;;6.00;5.23;;;0.50;99.90;;;;;;5077022;28;20782;-63
2021/12/26 03:05:21;;;;;;;6.37;5.77;;;0.50;99.90;;;;;;5058577;28;20780;-63
2021/12/26 03:07:49;;;;;;;6.53;5.83;;;0.50;99.90;;;;;;5060795;28;20493;-63
2021/12/26 03:10:22;;;;;;;6.90;6.20;;;0.50;99.90;;;;;;5077060;28;20513;-63
2021/12/26 03:12:51;;;;;;;7.90;5.70;;;0.50;99.90;;;;;;5058474;28;20462;-63
2021/12/26 03:15:18;;;;;;;8.73;6.50;;;0.50;99.90;;;;;;5072005;28;20516;-63
2021/12/26 03:17:47;;;;;;;6.00;5.20;;;0.50;99.90;;;;;;5076847;28;20514;-63
2021/12/26 03:20:18;;;;;;;7.27;5.80;;;0.50;99.90;;;;;;5076925;28;20528;-63
2021/12/26 03:22:48;;;;;;;7.40;6.00;;;0.60;99.90;;;;;;5077101;28;20468;-63
2021/12/26 03:25:18;;;;;;;7.50;5.80;;;0.50;99.90;;;;;;5065795;28;20466;-63
2021/12/26 03:27:46;;;;;;;7.43;5.87;;;0.60;99.90;;;;;;5056711;28;20544;-62
2021/12/26 03:30:16;;;;;;;6.40;5.80;;;0.60;99.90;;;;;;5056845;28;20956;-62
2021/12/26 03:32:43;;;;;;;7.70;6.20;;;0.60;99.90;;;;;;5057347;28;20462;-64
2021/12/26 03:35:11;;;;;;;7.80;6.00;;;0.60;99.90;;;;;;5062936;28;20522;-63
2021/12/26 03:37:39;;;;;;;8.47;6.20;;;0.60;99.90;;;;;;5077076;28;20515;-63
2021/12/26 03:40:08;;;;;;;6.60;5.87;;;0.60;99.90;;;;;;5076304;28;20489;-63
2021/12/26 03:42:37;;;;;;;6.93;6.10;;;0.60;99.90;;;;;;5076737;28;20496;-63
2021/12/26 03:45:06;;;;;;;7.03;6.10;;;0.70;99.90;;;;;;5074592;28;20468;-64
2021/12/26 03:47:34;;;;;;;9.03;6.27;;;0.70;99.90;;;;;;5057027;28;20516;-63
2021/12/26 03:50:02;;;;;;;7.90;6.60;;;0.70;99.90;;;;;;5056942;28;20458;-63
2021/12/26 03:52:29;;;;;;;7.23;6.47;;;0.70;99.90;;;;;;5056494;28;20516;-63
2021/12/26 03:54:56;;;;;;;6.67;6.07;;;0.70;99.90;;;;;;5056591;28;20466;-63
2021/12/26 03:57:23;;;;;;;7.43;6.20;;;0.70;99.90;;;;;;5074868;28;20519;-63
2021/12/26 03:59:51;;;;;;;8.30;7.17;;;0.70;99.90;;;;;;5080411;28;20537;-63
2021/12/26 04:02:19;;;;;;;7.83;6.27;;;0.70;99.90;;;;;;5080050;28;20464;-62
2021/12/26 04:04:46;;;;;;;6.90;5.97;;;0.70;99.90;;;;;;5080878;28;20506;-63
2021/12/26 04:07:13;;;;;;;7.63;6.03;;;0.70;99.90;;;;;;5068013;28;20559;-63
2021/12/26 04:09:43;;;;;;;8.10;6.70;;;0.70;99.90;;;;;;5060560;28;20866;-63
2021/12/26 04:12:11;;;;;;;8.97;6.90;;;0.80;99.90;;;;;;5047192;28;20553;-63
2021/12/26 04:14:38;;;;;;;8.00;7.20;;;0.70;99.90;;;;;;5040336;28;20516;-62
2021/12/26 04:17:07;;;;;;;8.50;6.93;;;0.80;99.90;;;;;;5046612;28;20896;-63
2021/12/26 04:19:34;;;;;;;8.03;6.67;;;0.80;99.90;;;;;;5060323;28;20500;-63
2021/12/26 04:22:02;;;;;;;7.70;6.60;;;0.80;99.90;;;;;;5061177;28;20465;-63
2021/12/26 04:24:30;;;;;;;8.07;6.30;;;0.70;99.90;;;;;;5060046;28;20466;-63
2021/12/26 04:26:57;;;;;;;7.27;6.10;;;0.80;99.90;;;;;;5060949;28;20474;-63
2021/12/26 04:29:25;;;;;;;7.20;6.40;;;0.80;99.90;;;;;;5078351;28;20507;-63
2021/12/26 04:31:52;;;;;;;8.30;7.07;;;0.80;99.90;;;;;;5079623;28;20813;-63
2021/12/26 04:34:20;;;;;;;10.33;7.07;;;0.70;99.90;;;;;;5079834;28;20578;-64
2021/12/26 04:36:47;;;;;;;7.43;6.53;;;0.70;99.90;;;;;;5079920;28;20465;-63
2021/12/26 04:39:14;;;;;;;8.07;6.40;;;0.70;99.90;;;;;;5062297;28;20764;-63
2021/12/26 04:41:45;;;;;;;8.43;7.00;;;0.80;99.90;;;;;;5060208;28;20462;-63
2021/12/26 04:44:12;;;;;;;8.07;7.20;;;0.70;99.90;;;;;;5059717;28;20468;-63
2021/12/26 04:46:39;;;;;;;7.07;6.20;;;0.80;99.90;;;;;;5059868;28;20489;-63
2021/12/26 04:49:06;;;;;;;11.10;7.63;;;0.80;99.90;;;;;;5069985;28;20461;-63
2021/12/26 04:51:35;;;;;;;8.60;6.63;;;0.80;99.90;;;;;;5079905;28;20905;-61
2021/12/26 04:54:03;;;;;;;7.10;6.03;;;0.80;99.90;;;;;;5070184;28;20462;-63
2021/12/26 04:56:30;;;;;;;9.07;7.07;;;0.80;99.90;;;;;;5059270;28;20462;-63
2021/12/26 04:58:57;;;;;;;8.20;6.60;;;0.80;99.90;;;;;;5064506;28;20875;-63
2021/12/26 05:01:24;;;;;;;7.20;6.47;;;0.80;99.90;;;;;;5077557;28;20542;-62
2021/12/26 05:03:51;;;;;;;9.00;7.50;;;0.80;99.90;;;;;;5079137;28;20511;-61
2021/12/26 05:06:18;;;;;;;7.30;6.50;;;0.80;99.90;;;;;;5079359;28;20489;-63
2021/12/26 05:08:47;;;;;;;8.37;7.20;;;0.80;99.90;;;;;;5078281;28;20461;-63
2021/12/26 05:11:14;;;;;;;8.30;6.80;;;0.90;99.90;;;;;;5054505;28;20462;-63
2021/12/26 05:13:41;;;;;;;9.77;7.40;;;0.90;99.90;;;;;;5044706;28;20462;-64
2021/12/26 05:16:08;;;;;;;8.00;7.20;;;0.80;99.90;;;;;;5058850;28;20462;-63
2021/12/26 05:18:35;;;;;;;9.03;7.57;;;0.80;99.90;;;;;;5058775;28;20466;-64
2021/12/26 05:21:02;;;;;;;9.57;7.67;;;0.80;99.90;;;;;;5073990;28;20489;-63
2021/12/26 05:23:30;;;;;;;7.73;6.63;;;0.80;99.90;;;;;;5077214;28;20822;-64
2021/12/26 05:25:58;;;;;;;8.40;7.00;;;0.80;99.90;;;;;;5077428;28;20465;-63
2021/12/26 05:28:25;;;;;;;9.30;7.27;;;0.80;99.90;;;;;;5078602;28;20511;-64
2021/12/26 05:30:52;;;;;;;10.10;7.50;;;0.80;99.90;;;;;;5068282;28;20875;-63
2021/12/26 05:33:19;;;;;;;9.83;8.10;;;0.70;99.90;;;;;;5059077;28;20462;-63
2021/12/26 05:35:46;;;;;;;8.10;6.33;;;0.70;99.90;;;;;;5059838;28;20462;-64
2021/12/26 05:38:13;;;;;;;8.70;7.13;;;0.70;99.90;;;;;;5058438;28;20473;-62
2021/12/26 05:40:40;;;;;;;9.40;7.10;;;0.70;99.90;;;;;;5062151;28;20555;-64
2021/12/26 05:43:09;;;;;;;7.77;6.70;;;0.70;99.90;;;;;;5078799;28;20483;-63
2021/12/26 05:45:36;;;;;;;9.27;7.40;;;0.70;99.90;;;;;;5077736;28;20461;-63
2021/12/26 05:48:03;;;;;;;9.07;7.43;;;0.70;99.90;;;;;;5078431;28;20457;-64
2021/12/26 05:50:30;;;;;;;8.03;6.43;;;0.60;99.90;;;;;;5077757;28;20462;-63
2021/12/26 05:52:57;;;;;;;8.83;7.17;;;0.70;99.90;;;;;;5077593;28;20474;-63
2021/12/26 05:55:28;;;;;;;8.67;7.33;;;0.70;99.90;;;;;;5073949;28;20508;-63
2021/12/26 05:57:55;;;;;;;8.80;7.10;;;0.80;99.90;;;;;;5058585;28;20520;-64
2021/12/26 06:00:23;;;;;;;7.77;6.80;;;0.70;99.90;;;;;;5058061;28;20498;-63
2021/12/26 06:02:54;;;;;;;8.80;7.07;;;0.70;99.90;;;;;;5072548;28;20465;-63
2021/12/26 06:05:21;;;;;;;6.97;5.97;;;0.70;99.90;;;;;;5077339;28;20473;-64
2021/12/26 06:07:49;;;;;;;9.93;7.00;;;0.70;99.90;;;;;;5075527;28;20489;-64
2021/12/26 06:10:16;;;;;;;8.67;7.73;;;0.70;99.90;;;;;;5077612;28;20511;-64
2021/12/26 06:12:46;;;;;;;8.73;6.80;;;0.60;99.90;;;;;;5061850;28;20470;-64
2021/12/26 06:15:14;;;;;;;8.90;7.07;;;0.60;99.90;;;;;;5057827;28;20836;-64
2021/12/26 06:17:43;;;;;;;7.90;6.60;;;0.60;99.90;;;;;;5073586;28;20461;-63
2021/12/26 06:20:14;;;;;;;8.37;6.50;;;0.60;99.90;;;;;;5076578;28;20493;-64
2021/12/26 06:22:41;;;;;;;9.73;7.87;;;0.60;99.90;;;;;;5070868;28;20556;-63
2021/12/26 06:25:09;;;;;;;8.17;7.10;;;0.60;99.90;;;;;;5057760;28;20815;-64
2021/12/26 06:27:37;;;;;;;8.40;7.47;;;0.60;99.90;;;;;;5057565;28;20504;-61
2021/12/26 06:30:05;;;;;;;10.20;8.20;;;0.70;99.90;;;;;;5057590;28;20960;-63
2021/12/26 06:32:32;;;;;;;8.30;7.47;;;0.70;99.90;;;;;;5058136;28;20470;-63
2021/12/26 06:35:02;;;;;;;8.80;7.80;;;0.80;99.90;;;;;;5077504;28;20518;-63
2021/12/26 06:37:29;;;;;;;10.57;7.40;;;0.80;99.90;;;;;;5077365;28;20510;-64
2021/12/26 06:39:56;;;;;;;9.30;7.30;;;0.80;99.90;;;;;;5077565;28;20489;-63
2021/12/26 06:42:23;;;;;;;8.47;7.33;;;0.90;99.90;;;;;;5077491;28;20468;-63
2021/12/26 06:44:50;;;;;;;10.03;8.30;;;0.90;99.90;;;;;;5060044;28;20466;-64
2021/12/26 06:47:21;;;;;;;7.97;6.70;;;0.90;99.90;;;;;;5057106;28;20565;-60
2021/12/26 06:49:48;;;;;;;8.60;7.40;;;0.90;99.90;;;;;;5057442;28;20504;-63
2021/12/26 06:52:17;;;;;;;8.57;6.90;;;0.90;99.90;;;;;;5057360;28;20819;-63
2021/12/26 06:54:44;;;;;;;10.27;7.17;;;1.00;99.90;;;;;;5068480;28;20465;-62
2021/12/26 06:57:11;;;;;;;22.63;18.63;;;1.00;99.90;;;;;;5077281;28;20469;-62
2021/12/26 06:59:38;;;;;;;24.10;17.33;;;1.00;99.90;;;;;;5076635;28;20510;-63
2021/12/26 07:02:05;;;;;;;13.93;11.43;;;1.10;99.90;;;;;;5077071;28;20499;-64
2021/12/26 07:04:32;;;;;;;10.30;8.50;;;1.10;99.90;;;;;;5070221;28;20458;-64
2021/12/26 07:07:00;;;;;;;13.57;9.93;;;1.10;99.90;;;;;;5067853;28;20491;-64
2021/12/26 07:09:31;;;;;;;9.10;7.63;;;1.00;99.90;;;;;;5076756;28;20810;-64
2021/12/26 07:11:59;;;;;;;10.93;8.50;;;1.00;99.90;;;;;;5066287;28;20822;-64
2021/12/26 07:14:26;;;;;;;8.97;7.10;;;1.00;99.90;;;;;;5058004;28;20956;-64
2021/12/26 07:16:53;;;;;;;15.07;11.90;;;1.00;99.90;;;;;;5057845;28;20459;-64
2021/12/26 07:19:20;;;;;;;13.03;9.67;;;1.10;99.90;;;;;;5057015;28;20817;-64
2021/12/26 07:21:47;;;;;;;9.70;8.23;;;1.00;99.90;;;;;;5057039;28;20494;-64
2021/12/26 07:24:21;;;;;;;9.63;7.23;;;1.00;99.90;;;;;;5056908;28;20507;-64
2021/12/26 07:26:50;;;;;;;12.10;8.57;;;1.10;99.90;;;;;;5071866;28;20923;-64
2021/12/26 07:29:17;;;;;;;9.30;7.63;;;1.10;99.90;;;;;;5056712;28;20523;-64
2021/12/26 07:31:44;;;;;;;9.27;7.77;;;1.10;99.90;;;;;;5058400;28;20462;-64
2021/12/26 07:34:11;;;;;;;11.37;9.80;;;1.10;99.90;;;;;;5061357;28;20894;-64
2021/12/26 07:36:41;;;;;;;9.60;7.40;;;1.10;99.90;;;;;;5071794;28;20440;-64
2021/12/26 07:39:08;;;;;;;11.10;9.07;;;1.10;99.90;;;;;;5081025;28;20960;-64
2021/12/26 07:41:35;;;;;;;10.60;8.30;;;1.20;99.90;;;;;;5080249;28;21009;-64
2021/12/26 07:44:04;;;;;;;10.53;8.37;;;1.10;99.90;;;;;;5081131;28;20515;-64
2021/12/26 07:46:34;;;;;;;11.10;8.87;;;1.20;99.90;;;;;;5080805;28;20461;-65
2021/12/26 07:49:04;;;;;;;10.13;7.60;;;1.20;99.90;;;;;;5080964;28;20474;-65
2021/12/26 07:51:31;;;;;;;10.70;8.80;;;1.20;99.90;;;;;;5067435;28;20532;-65
2021/12/26 07:54:01;;;;;;;11.47;9.13;;;1.20;99.90;;;;;;5060496;28;20818;-65
2021/12/26 07:56:28;;;;;;;12.27;9.13;;;1.20;99.90;;;;;;5061425;28;20469;-65
2021/12/26 07:58:55;;;;;;;11.60;8.93;;;1.20;99.90;;;;;;5060387;28;20465;-65
2021/12/26 08:01:27;;;;;;;11.90;9.30;;;1.10;99.90;;;;;;5060528;28;20972;-65
2021/12/26 08:03:54;;;;;;;10.23;8.20;;;1.20;99.90;;;;;;5060809;28;20461;-65
2021/12/26 08:06:23;;;;;;;10.23;8.33;;;1.30;99.90;;;;;;5069713;28;20500;-66
2021/12/26 08:08:51;;;;;;;10.40;8.97;;;1.30;99.90;;;;;;5080313;28;20516;-66
2021/12/26 08:11:18;;;;;;;10.43;8.30;;;1.20;99.90;;;;;;5074957;28;20527;-66
2021/12/26 08:13:46;;;;;;;11.77;8.77;;;1.30;99.90;;;;;;5060731;28;20465;-66
2021/12/26 08:16:13;;;;;;;12.60;9.30;;;1.30;99.90;;;;;;5065397;28;20958;-66
2021/12/26 08:18:41;;;;;;;11.70;8.80;;;1.30;99.90;;;;;;5075868;28;20437;-66
2021/12/26 08:21:08;;;;;;;10.10;8.53;;;1.40;99.90;;;;;;5059418;28;20531;-66
2021/12/26 08:23:36;;;;;;;9.40;7.53;;;1.40;99.90;;;;;;5059432;28;20454;-66
2021/12/26 08:26:04;;;;;;;10.87;8.27;;;1.40;99.90;;;;;;5059096;28;20461;-66
2021/12/26 08:28:32;;;;;;;9.20;8.27;;;1.40;99.90;;;;;;5058459;28;20439;-67
2021/12/26 08:30:59;;;;;;;9.30;7.67;;;1.50;99.90;;;;;;5059468;28;20814;-66
2021/12/26 08:33:26;;;;;;;10.57;8.40;;;1.40;99.90;;;;;;5059421;28;20757;-67
2021/12/26 08:35:54;;;;;;;10.40;8.83;;;1.50;99.90;;;;;;5059324;28;20508;-67
2021/12/26 08:38:21;;;;;;;10.57;8.63;;;1.40;99.90;;;;;;5058689;28;20459;-67
2021/12/26 08:40:49;;;;;;;11.40;8.77;;;1.50;99.90;;;;;;5058635;28;20490;-67
2021/12/26 08:43:18;;;;;;;11.53;8.40;;;1.50;99.90;;;;;;5058581;28;20462;-66
2021/12/26 08:45:46;;;;;;;12.00;9.70;;;1.50;99.90;;;;;;5059328;28;20508;-66
2021/12/26 08:48:13;;;;;;;11.83;10.03;;;1.50;99.90;;;;;;5059094;28;20465;-66
2021/12/26 08:50:41;;;;;;;11.57;8.67;;;1.60;99.90;;;;;;5058766;28;20508;-66
2021/12/26 08:53:10;;;;;;;12.77;10.50;;;1.60;99.90;;;;;;5075355;28;20439;-66
2021/12/26 08:55:38;;;;;;;11.57;8.80;;;1.50;99.90;;;;;;5079560;28;20468;-66
2021/12/26 08:58:06;;;;;;;13.03;10.13;;;1.60;99.90;;;;;;5075078;28;20523;-66
2021/12/26 09:00:34;;;;;;;12.70;10.27;;;1.60;99.90;;;;;;5078645;28;20480;-66
2021/12/26 09:03:01;;;;;;;10.20;8.57;;;1.60;99.90;;;;;;5067328;28;20440;-65
2021/12/26 09:05:28;;;;;;;11.83;8.37;;;1.60;99.90;;;;;;5059405;28;20827;-65
2021/12/26 09:07:56;;;;;;;8.90;7.80;;;1.70;99.90;;;;;;5059018;28;20496;-64
2021/12/26 09:10:24;;;;;;;10.03;8.80;;;1.70;99.90;;;;;;5062955;28;20766;-64
2021/12/26 09:12:51;;;;;;;19.23;12.63;;;1.80;99.90;;;;;;5060412;28;20494;-64
2021/12/26 09:15:18;;;;;;;12.33;9.10;;;1.80;99.90;;;;;;5058304;28;20524;-62
2021/12/26 09:17:46;;;;;;;12.87;9.63;;;1.90;99.90;;;;;;5057993;28;20508;-63
2021/12/26 09:20:13;;;;;;;33.27;22.30;;;1.80;99.90;;;;;;5060974;28;20512;-61
2021/12/26 09:22:42;;;;;;;25.03;16.27;;;1.90;99.90;;;;;;5059163;28;20486;-62
2021/12/26 09:25:10;;;;;;;32.17;21.83;;;1.90;99.90;;;;;;5059464;28;20462;-63
2021/12/26 09:27:39;;;;;;;15.23;10.10;;;1.90;99.90;;;;;;5055760;28;20454;-64
2021/12/26 09:30:08;;;;;;;14.80;10.20;;;2.00;99.90;;;;;;5059204;28;20813;-62
2021/12/26 09:32:37;;;;;;;18.90;13.67;;;2.00;99.90;;;;;;5058653;28;20490;-61
2021/12/26 09:35:06;;;;;;;11.17;8.43;;;2.20;99.90;;;;;;5074454;28;20443;-59
2021/12/26 09:37:33;;;;;;;11.70;9.37;;;2.30;99.90;;;;;;5073670;28;20833;-59
2021/12/26 09:40:00;;;;;;;13.93;10.57;;;2.30;99.90;;;;;;5078990;28;20465;-62
2021/12/26 09:42:29;;;;;;;11.70;9.60;;;2.50;99.90;;;;;;5076358;28;20855;-64
2021/12/26 09:44:58;;;;;;;13.33;10.10;;;2.60;99.90;;;;;;5078655;28;20472;-65
2021/12/26 09:47:25;;;;;;;16.67;11.70;;;2.60;99.90;;;;;;5074744;28;20767;-63
2021/12/26 09:49:53;;;;;;;12.97;10.03;;;2.70;99.90;;;;;;5058368;28;20466;-63
2021/12/26 09:52:20;;;;;;;13.40;10.27;;;2.70;99.90;;;;;;5058223;28;20462;-63
2021/12/26 09:54:47;;;;;;;13.57;9.67;;;2.60;99.90;;;;;;5057434;28;20528;-63
2021/12/26 09:57:17;;;;;;;11.30;8.93;;;2.60;99.90;;;;;;5056868;28;20925;-62
2021/12/26 09:59:47;;;;;;;12.40;9.70;;;2.60;99.90;;;;;;5057221;28;20437;-64
2021/12/26 10:02:18;;;;;;;10.27;9.13;;;2.50;99.90;;;;;;5056528;28;20486;-64
2021/12/26 10:04:49;;;;;;;12.50;10.57;;;2.50;99.90;;;;;;5065791;28;20465;-64
2021/12/26 10:07:19;;;;;;;10.00;8.43;;;2.50;99.90;;;;;;5057983;28;20555;-64
2021/12/26 10:09:49;;;;;;;10.80;9.27;;;2.50;99.90;;;;;;5058968;28;20553;-64
2021/12/26 10:12:17;;;;;;;9.90;8.70;;;2.50;99.90;;;;;;5043470;28;20459;-64
2021/12/26 10:14:49;;;;;;;11.47;8.73;;;2.50;99.90;;;;;;5054623;28;20519;-64
2021/12/26 10:17:23;;;;;;;11.37;8.33;;;2.50;99.90;;;;;;5077300;28;20886;-64
2021/12/26 10:19:52;;;;;;;11.50;9.67;;;2.50;99.90;;;;;;5075638;28;20882;-64
2021/12/26 10:22:25;;;;;;;11.50;8.80;;;2.40;99.90;;;;;;5077167;28;20493;-64
2021/12/26 10:24:54;;;;;;;11.20;8.40;;;2.50;99.90;;;;;;5073916;28;20815;-64
2021/12/26 10:27:26;;;;;;;10.90;8.50;;;2.50;99.90;;;;;;5057202;28;20466;-65
2021/12/26 10:29:55;;;;;;;11.17;8.80;;;2.40;99.90;;;;;;5058183;28;20433;-64
2021/12/26 10:32:26;;;;;;;11.60;8.20;;;2.40;99.90;;;;;;5057750;28;20466;-65
2021/12/26 10:34:56;;;;;;;11.70;8.53;;;2.30;99.90;;;;;;5057616;28;20462;-65
2021/12/26 10:37:28;;;;;;;10.07;8.40;;;2.40;99.90;;;;;;5077272;28;20515;-64
2021/12/26 10:39:57;;;;;;;11.70;8.43;;;2.30;99.90;;;;;;5075992;28;20458;-64
2021/12/26 10:42:28;;;;;;;9.50;7.60;;;2.30;99.90;;;;;;5077609;28;20504;-65
2021/12/26 10:44:57;;;;;;;10.23;8.20;;;2.40;99.90;;;;;;5077919;28;20520;-66
2021/12/26 10:47:29;;;;;;;10.70;8.43;;;2.30;99.90;;;;;;5069587;28;20488;-65
2021/12/26 10:49:58;;;;;;;12.60;8.83;;;2.30;99.90;;;;;;5077466;28;20767;-65
2021/12/26 10:52:31;;;;;;;11.40;8.30;;;2.40;99.90;;;;;;5077635;28;20468;-65
2021/12/26 10:55:05;;;;;;;10.80;8.60;;;2.40;99.90;;;;;;5077736;28;20465;-65
2021/12/26 10:57:35;;;;;;;9.03;7.77;;;2.50;99.90;;;;;;5063404;28;20437;-65
2021/12/26 11:00:17;;;;;;;12.57;7.97;;;2.40;99.90;;;;;;5057292;28;20519;-65
2021/12/26 11:02:54;;;;;;;11.80;8.70;;;2.50;99.90;;;;;;5057069;28;20500;-65
2021/12/26 11:05:26;;;;;;;12.43;8.67;;;2.50;99.90;;;;;;5057179;28;20894;-65
2021/12/26 11:07:56;;;;;;;9.67;8.03;;;2.50;99.90;;;;;;5067173;28;20493;-66
2021/12/26 11:10:27;;;;;;;9.67;8.67;;;2.60;99.90;;;;;;5077418;28;20465;-66
2021/12/26 11:12:56;;;;;;;9.27;7.40;;;2.60;99.90;;;;;;5057967;28;20519;-66
2021/12/26 11:15:25;;;;;;;11.73;8.93;;;2.60;99.90;;;;;;5057447;28;20805;-65
2021/12/26 11:18:00;;;;;;;11.40;8.40;;;2.70;99.90;;;;;;5065530;28;20458;-66
2021/12/26 11:20:34;;;;;;;11.13;8.57;;;2.70;99.90;;;;;;5077637;28;20464;-66
2021/12/26 11:23:09;;;;;;;10.00;8.80;;;2.70;99.90;;;;;;5058577;28;20486;-66
2021/12/26 11:25:37;;;;;;;10.50;8.20;;;2.70;99.90;;;;;;5073260;28;20464;-66
2021/12/26 11:28:04;;;;;;;12.77;9.50;;;2.70;99.90;;;;;;5077692;28;20515;-66
2021/12/26 11:30:31;;;;;;;11.40;8.93;;;2.70;99.90;;;;;;5058110;28;20466;-66
2021/12/26 11:33:00;;;;;;;9.97;7.83;;;2.70;99.90;;;;;;5057698;28;20458;-67
2021/12/26 11:35:31;;;;;;;11.10;8.57;;;2.70;99.90;;;;;;5066645;28;20884;-67
2021/12/26 11:38:01;;;;;;;10.37;8.20;;;2.70;99.90;;;;;;5077345;28;20796;-67
2021/12/26 11:40:29;;;;;;;10.60;9.00;;;2.80;99.90;;;;;;5069042;28;20918;-67
2021/12/26 11:43:34;;;;;;;11.57;8.83;;;2.80;99.90;;;;;;5055611;28;20567;-67
2021/12/26 11:46:09;;;;;;;10.57;7.97;;;2.80;99.90;;;;;;4999188;28;20478;-67
2021/12/26 11:49:07;;;;;;;11.13;8.63;;;2.70;99.90;;;;;;5036074;28;20506;-68
2021/12/26 11:52:03;;;;;;;9.40;8.20;;;2.80;99.90;;;;;;5060574;28;20468;-68
2021/12/26 11:54:44;;;;;;;13.40;9.30;;;2.80;99.90;;;;;;5064678;28;20474;-67
2021/12/26 11:57:28;;;;;;;10.20;8.03;;;2.90;99.90;;;;;;5076603;28;20510;-67
2021/12/26 12:00:06;;;;;;;14.20;9.17;;;2.90;99.90;;;;;;5076190;28;20912;-66
2021/12/26 12:02:42;;;;;;;10.67;8.23;;;3.00;99.90;;;;;;5059741;28;20486;-66
2021/12/26 12:05:18;;;;;;;10.90;8.23;;;3.10;99.90;;;;;;5056388;28;20768;-66
2021/12/26 12:07:47;;;;;;;11.77;10.50;;;3.20;99.90;;;;;;5056602;28;20464;-66
2021/12/26 12:10:42;;;;;;;10.83;7.67;;;3.20;99.90;;;;;;5056191;28;20458;-65
2021/12/26 12:13:11;;;;;;;10.63;8.07;;;3.30;99.90;;;;;;5071488;28;20551;-65
2021/12/26 12:15:50;;;;;;;10.23;8.17;;;3.30;99.90;;;;;;5076540;28;20501;-65
2021/12/26 12:18:20;;;;;;;10.07;8.53;;;3.30;99.90;;;;;;5079257;28;20460;-65
2021/12/26 12:21:05;;;;;;;9.40;7.47;;;3.20;99.90;;;;;;5080009;28;20834;-66
2021/12/26 12:23:36;;;;;;;12.10;7.97;;;3.30;99.90;;;;;;5058479;28;20493;-66
2021/12/26 12:26:04;;;;;;;8.80;7.23;;;3.30;99.90;;;;;;5059823;28;20458;-66
2021/12/26 12:28:36;;;;;;;9.40;7.30;;;3.30;99.90;;;;;;5055548;28;20524;-66
2021/12/26 12:31:20;;;;;;;9.50;8.07;;;3.30;99.90;;;;;;5058612;28;20479;-67
2021/12/26 12:34:01;;;;;;;9.63;8.63;;;3.30;99.90;;;;;;5059365;28;20496;-66
2021/12/26 12:36:32;;;;;;;10.10;9.00;;;3.30;99.90;;;;;;5059330;28;20493;-66
2021/12/26 12:39:16;;;;;;;14.10;9.80;;;3.30;99.90;;;;;;5053892;28;20466;-66
2021/12/26 12:41:46;;;;;;;9.23;8.10;;;3.30;99.90;;;;;;5052709;28;20458;-66
2021/12/26 12:44:34;;;;;;;11.33;8.80;;;3.30;99.90;;;;;;5059552;28;20527;-66
2021/12/26 12:47:05;;;;;;;14.47;10.90;;;3.20;99.90;;;;;;5061449;28;20515;-66
2021/12/26 12:49:47;;;;;;;12.73;11.03;;;3.30;99.90;;;;;;5062386;28;20871;-66
2021/12/26 12:52:42;;;;;;;10.60;9.10;;;3.20;99.90;;;;;;5059119;28;20466;-66
2021/12/26 12:55:13;;;;;;;10.40;9.27;;;3.30;99.90;;;;;;5058417;28;20968;-66
2021/12/26 12:57:48;;;;;;;12.53;9.03;;;3.30;99.90;;;;;;5063070;28;20507;-66
2021/12/26 13:00:43;;;;;;;10.13;8.70;;;3.30;99.90;;;;;;5072827;28;20945;-66
2021/12/26 13:03:16;;;;;;;12.97;8.63;;;3.40;99.90;;;;;;5058693;28;20547;-66